sensor_id;sensor_type;location;lat;lon;timestamp;pressure;altitude;pressure_sealevel;temperature;humidity
73024;BME280;61199;47.526;8.538;2023-02-08T00:02:00;98141.28;;;-0.25;62.62
73024;BME280;61199;47.526;8.538;2023-02-08T00:04:26;98140.22;;;-0.13;61.82
73024;BME280;61199;47.526;8.538;2023-02-08T00:06:53;98136.00;;;-0.19;62.01
73024;BME280;61199;47.526;8.538;2023-02-08T00:09:19;98130.13;;;-0.25;62.09
73024;BME280;61199;47.526;8.538;2023-02-08T00:11:45;98122.47;;;-0.27;62.57
73024;BME280;61199;47.526;8.538;2023-02-08T00:14:12;98115.50;;;-0.22;62.26
73024;BME280;61199;47.526;8.538;2023-02-08T00:16:38;98108.66;;;-0.23;61.79
73024;BME280;61199;47.526;8.538;2023-02-08T00:19:04;98110.25;;;-0.17;62.14
73024;BME280;61199;47.526;8.538;2023-02-08T00:21:31;98101.09;;;-0.32;61.85
73024;BME280;61199;47.526;8.538;2023-02-08T00:23:57;98100.44;;;-0.43;62.56
73024;BME280;61199;47.526;8.538;2023-02-08T00:26:23;98105.19;;;-0.22;61.95
73024;BME280;61199;47.526;8.538;2023-02-08T00:28:50;98101.34;;;-0.45;62.21
73024;BME280;61199;47.526;8.538;2023-02-08T00:31:16;98102.16;;;-0.43;62.29
73024;BME280;61199;47.526;8.538;2023-02-08T00:33:43;98101.50;;;-0.53;62.49
73024;BME280;61199;47.526;8.538;2023-02-08T00:36:10;98099.72;;;-0.49;62.23
73024;BME280;61199;47.526;8.538;2023-02-08T00:38:36;98100.53;;;-0.49;62.02
73024;BME280;61199;47.526;8.538;2023-02-08T00:41:03;98095.94;;;-0.30;61.42
73024;BME280;61199;47.526;8.538;2023-02-08T00:43:30;98089.19;;;-0.37;61.69
73024;BME280;61199;47.526;8.538;2023-02-08T00:45:57;98092.66;;;-0.40;62.11
73024;BME280;61199;47.526;8.538;2023-02-08T00:48:25;98098.75;;;-0.44;61.74
73024;BME280;61199;47.526;8.538;2023-02-08T00:53:25;98098.53;;;-0.32;61.39
73024;BME280;61199;47.526;8.538;2023-02-08T00:55:53;98092.81;;;-0.47;61.51
73024;BME280;61199;47.526;8.538;2023-02-08T00:58:21;98090.19;;;-0.46;61.79
73024;BME280;61199;47.526;8.538;2023-02-08T01:00:50;98081.63;;;-0.45;61.53
73024;BME280;61199;47.526;8.538;2023-02-08T01:03:21;98081.66;;;-0.48;61.66
73024;BME280;61199;47.526;8.538;2023-02-08T01:05:48;98073.06;;;-0.47;61.64
73024;BME280;61199;47.526;8.538;2023-02-08T01:08:15;98071.84;;;-0.75;62.31
73024;BME280;61199;47.526;8.538;2023-02-08T01:10:41;98078.69;;;-0.74;62.41
73024;BME280;61199;47.526;8.538;2023-02-08T01:13:08;98073.69;;;-0.83;62.65
73024;BME280;61199;47.526;8.538;2023-02-08T01:15:35;98072.81;;;-0.80;62.39
73024;BME280;61199;47.526;8.538;2023-02-08T01:18:01;98071.75;;;-0.69;62.41
73024;BME280;61199;47.526;8.538;2023-02-08T01:20:27;98079.16;;;-0.52;61.95
73024;BME280;61199;47.526;8.538;2023-02-08T01:22:55;98079.31;;;-0.60;61.79
73024;BME280;61199;47.526;8.538;2023-02-08T01:25:22;98074.31;;;-0.67;61.82
73024;BME280;61199;47.526;8.538;2023-02-08T01:27:48;98075.28;;;-0.73;62.03
73024;BME280;61199;47.526;8.538;2023-02-08T01:30:15;98073.50;;;-0.71;62.01
73024;BME280;61199;47.526;8.538;2023-02-08T01:32:42;98073.66;;;-0.80;62.26
73024;BME280;61199;47.526;8.538;2023-02-08T01:35:09;98064.91;;;-0.70;61.91
73024;BME280;61199;47.526;8.538;2023-02-08T01:37:35;98056.56;;;-0.81;62.07
73024;BME280;61199;47.526;8.538;2023-02-08T01:40:02;98066.53;;;-0.66;61.70
73024;BME280;61199;47.526;8.538;2023-02-08T01:42:28;98062.59;;;-0.38;61.14
73024;BME280;61199;47.526;8.538;2023-02-08T01:45:28;98056.06;;;-0.54;61.15
73024;BME280;61199;47.526;8.538;2023-02-08T01:48:03;98059.22;;;-0.40;60.93
73024;BME280;61199;47.526;8.538;2023-02-08T01:50:35;98059.84;;;-0.27;60.20
73024;BME280;61199;47.526;8.538;2023-02-08T01:53:06;98060.63;;;-0.24;60.04
73024;BME280;61199;47.526;8.538;2023-02-08T01:55:36;98059.91;;;-0.30;60.35
73024;BME280;61199;47.526;8.538;2023-02-08T01:58:05;98059.22;;;-0.41;60.91
73024;BME280;61199;47.526;8.538;2023-02-08T02:00:34;98067.91;;;-0.47;60.98
73024;BME280;61199;47.526;8.538;2023-02-08T02:03:01;98064.34;;;-0.40;60.78
73024;BME280;61199;47.526;8.538;2023-02-08T02:05:31;98066.13;;;-0.42;60.36
73024;BME280;61199;47.526;8.538;2023-02-08T02:07:59;98064.88;;;-0.23;59.84
73024;BME280;61199;47.526;8.538;2023-02-08T02:10:34;98058.03;;;-0.22;59.71
73024;BME280;61199;47.526;8.538;2023-02-08T02:13:17;98058.13;;;-0.27;59.83
73024;BME280;61199;47.526;8.538;2023-02-08T02:15:45;98056.34;;;-0.25;59.89
73024;BME280;61199;47.526;8.538;2023-02-08T02:24:10;98049.09;;;-0.49;59.84
73024;BME280;61199;47.526;8.538;2023-02-08T02:35:00;98043.38;;;-0.64;59.97
73024;BME280;61199;47.526;8.538;2023-02-08T02:37:41;98049.50;;;-0.70;60.18
73024;BME280;61199;47.526;8.538;2023-02-08T02:43:25;98041.78;;;-0.71;60.46
73024;BME280;61199;47.526;8.538;2023-02-08T02:46:24;98049.28;;;-0.59;60.13
73024;BME280;61199;47.526;8.538;2023-02-08T02:51:56;98041.38;;;-0.96;60.60
73024;BME280;61199;47.526;8.538;2023-02-08T02:54:32;98039.19;;;-0.70;60.53
73024;BME280;61199;47.526;8.538;2023-02-08T02:57:03;98038.25;;;-0.66;59.82
73024;BME280;61199;47.526;8.538;2023-02-08T02:59:33;98043.72;;;-0.84;60.76
73024;BME280;61199;47.526;8.538;2023-02-08T03:02:00;98046.06;;;-0.70;60.03
73024;BME280;61199;47.526;8.538;2023-02-08T03:07:04;98037.84;;;-0.89;60.61
73024;BME280;61199;47.526;8.538;2023-02-08T03:25:33;98037.88;;;-0.92;60.16
73024;BME280;61199;47.526;8.538;2023-02-08T03:31:00;98051.28;;;-1.25;60.58
73024;BME280;61199;47.526;8.538;2023-02-08T03:33:35;98044.81;;;-0.97;59.95
73024;BME280;61199;47.526;8.538;2023-02-08T03:36:25;98042.84;;;-0.83;59.15
73024;BME280;61199;47.526;8.538;2023-02-08T03:38:53;98038.75;;;-0.93;59.74
73024;BME280;61199;47.526;8.538;2023-02-08T03:41:26;98039.28;;;-0.74;59.09
73024;BME280;61199;47.526;8.538;2023-02-08T03:44:00;98041.84;;;-0.73;58.96
73024;BME280;61199;47.526;8.538;2023-02-08T03:46:32;98050.31;;;-0.69;58.72
73024;BME280;61199;47.526;8.538;2023-02-08T03:49:07;98043.38;;;-0.64;58.42
73024;BME280;61199;47.526;8.538;2023-02-08T03:51:35;98042.50;;;-0.62;58.44
73024;BME280;61199;47.526;8.538;2023-02-08T03:54:09;98042.53;;;-0.65;58.11
73024;BME280;61199;47.526;8.538;2023-02-08T03:56:52;98033.66;;;-0.49;58.16
73024;BME280;61199;47.526;8.538;2023-02-08T03:59:23;98039.69;;;-0.50;57.65
73024;BME280;61199;47.526;8.538;2023-02-08T04:01:58;98034.13;;;-0.73;58.06
73024;BME280;61199;47.526;8.538;2023-02-08T04:04:28;98026.91;;;-0.56;57.64
73024;BME280;61199;47.526;8.538;2023-02-08T04:06:57;98033.88;;;-0.61;57.82
73024;BME280;61199;47.526;8.538;2023-02-08T04:09:23;98022.47;;;-0.46;57.04
73024;BME280;61199;47.526;8.538;2023-02-08T04:11:50;98017.06;;;-0.34;56.91
73024;BME280;61199;47.526;8.538;2023-02-08T04:14:17;98013.66;;;-0.80;57.43
73024;BME280;61199;47.526;8.538;2023-02-08T04:16:43;98011.63;;;-0.62;57.69
73024;BME280;61199;47.526;8.538;2023-02-08T04:19:09;98015.00;;;-0.60;57.52
73024;BME280;61199;47.526;8.538;2023-02-08T04:21:36;98004.81;;;-0.64;57.87
73024;BME280;61199;47.526;8.538;2023-02-08T04:24:02;97995.00;;;-0.46;57.42
73024;BME280;61199;47.526;8.538;2023-02-08T04:26:29;97997.00;;;-0.60;57.62
73024;BME280;61199;47.526;8.538;2023-02-08T04:28:55;97996.13;;;-0.59;57.72
73024;BME280;61199;47.526;8.538;2023-02-08T04:31:22;97996.97;;;-0.58;57.52
73024;BME280;61199;47.526;8.538;2023-02-08T04:33:48;97997.44;;;-0.40;57.46
73024;BME280;61199;47.526;8.538;2023-02-08T04:36:14;97996.47;;;-0.33;57.25
73024;BME280;61199;47.526;8.538;2023-02-08T04:38:41;97998.75;;;-0.19;56.44
73024;BME280;61199;47.526;8.538;2023-02-08T04:41:07;97990.44;;;-0.33;56.78
73024;BME280;61199;47.526;8.538;2023-02-08T04:43:33;97993.13;;;-0.38;56.50
73024;BME280;61199;47.526;8.538;2023-02-08T04:46:00;97996.44;;;-0.31;56.78
73024;BME280;61199;47.526;8.538;2023-02-08T04:48:27;97985.69;;;-0.09;55.83
73024;BME280;61199;47.526;8.538;2023-02-08T04:50:54;97993.50;;;-0.15;56.33
73024;BME280;61199;47.526;8.538;2023-02-08T04:53:22;97990.44;;;-0.32;56.53
73024;BME280;61199;47.526;8.538;2023-02-08T04:55:48;97992.41;;;-0.46;57.09
73024;BME280;61199;47.526;8.538;2023-02-08T04:58:15;97992.56;;;-0.52;57.00
73024;BME280;61199;47.526;8.538;2023-02-08T05:00:41;97992.66;;;-0.58;57.65
73024;BME280;61199;47.526;8.538;2023-02-08T05:03:08;97992.81;;;-0.64;57.78
73024;BME280;61199;47.526;8.538;2023-02-08T05:05:35;97992.56;;;-0.52;57.46
73024;BME280;61199;47.526;8.538;2023-02-08T05:08:01;97983.19;;;-0.56;57.46
73024;BME280;61199;47.526;8.538;2023-02-08T05:10:28;97989.28;;;-0.60;56.97
73024;BME280;61199;47.526;8.538;2023-02-08T05:12:55;97993.06;;;-0.79;57.43
73024;BME280;61199;47.526;8.538;2023-02-08T05:15:21;97992.53;;;-0.97;58.24
73024;BME280;61199;47.526;8.538;2023-02-08T05:17:47;97994.31;;;-1.01;58.48
73024;BME280;61199;47.526;8.538;2023-02-08T05:20:14;97995.00;;;-0.90;58.26
73024;BME280;61199;47.526;8.538;2023-02-08T05:22:40;97992.84;;;-1.12;58.72
73024;BME280;61199;47.526;8.538;2023-02-08T05:25:07;97990.69;;;-0.89;58.04
73024;BME280;61199;47.526;8.538;2023-02-08T05:27:34;98003.72;;;-0.98;58.32
73024;BME280;61199;47.526;8.538;2023-02-08T05:30:00;97994.88;;;-0.84;57.94
73024;BME280;61199;47.526;8.538;2023-02-08T05:32:27;97993.31;;;-0.92;58.08
73024;BME280;61199;47.526;8.538;2023-02-08T05:34:53;97995.09;;;-0.96;57.72
73024;BME280;61199;47.526;8.538;2023-02-08T05:37:20;97997.66;;;-0.94;58.40
73024;BME280;61199;47.526;8.538;2023-02-08T05:39:46;98003.69;;;-0.97;58.02
73024;BME280;61199;47.526;8.538;2023-02-08T05:42:12;98001.84;;;-0.89;58.19
73024;BME280;61199;47.526;8.538;2023-02-08T05:44:39;98004.78;;;-0.63;57.44
73024;BME280;61199;47.526;8.538;2023-02-08T05:47:05;98000.53;;;-0.65;57.38
73024;BME280;61199;47.526;8.538;2023-02-08T05:49:31;98003.03;;;-0.61;57.13
73024;BME280;61199;47.526;8.538;2023-02-08T05:51:58;98008.09;;;-0.58;57.17
73024;BME280;61199;47.526;8.538;2023-02-08T05:54:24;98005.66;;;-0.64;56.98
73024;BME280;61199;47.526;8.538;2023-02-08T05:56:51;98004.44;;;-0.45;56.49
73024;BME280;61199;47.526;8.538;2023-02-08T05:59:17;98011.22;;;-0.42;56.96
73024;BME280;61199;47.526;8.538;2023-02-08T06:01:43;98004.09;;;-0.28;56.26
73024;BME280;61199;47.526;8.538;2023-02-08T06:04:10;98005.47;;;-0.55;56.95
73024;BME280;61199;47.526;8.538;2023-02-08T06:06:36;98013.41;;;-0.67;57.09
73024;BME280;61199;47.526;8.538;2023-02-08T06:09:02;98010.59;;;-0.55;56.86
73024;BME280;61199;47.526;8.538;2023-02-08T06:11:30;98025.47;;;-0.69;56.95
73024;BME280;61199;47.526;8.538;2023-02-08T06:13:56;98022.00;;;-0.66;56.83
73024;BME280;61199;47.526;8.538;2023-02-08T06:16:22;98015.41;;;-0.81;57.54
73024;BME280;61199;47.526;8.538;2023-02-08T06:18:49;98019.84;;;-0.89;57.71
73024;BME280;61199;47.526;8.538;2023-02-08T06:21:15;98018.31;;;-1.00;57.55
73024;BME280;61199;47.526;8.538;2023-02-08T06:23:41;98031.66;;;-0.80;57.32
73024;BME280;61199;47.526;8.538;2023-02-08T06:26:08;98030.94;;;-0.87;57.38
73024;BME280;61199;47.526;8.538;2023-02-08T06:28:34;98029.25;;;-0.88;57.11
73024;BME280;61199;47.526;8.538;2023-02-08T06:31:00;98027.69;;;-0.98;57.26
73024;BME280;61199;47.526;8.538;2023-02-08T06:33:27;98029.16;;;-0.82;56.81
73024;BME280;61199;47.526;8.538;2023-02-08T06:35:53;98029.16;;;-0.83;56.85
73024;BME280;61199;47.526;8.538;2023-02-08T06:38:20;98033.09;;;-0.64;56.61
73024;BME280;61199;47.526;8.538;2023-02-08T06:40:47;98036.78;;;-0.79;56.65
73024;BME280;61199;47.526;8.538;2023-02-08T06:43:14;98034.13;;;-0.73;56.49
73024;BME280;61199;47.526;8.538;2023-02-08T06:45:43;98036.81;;;-0.80;56.50
73024;BME280;61199;47.526;8.538;2023-02-08T06:48:11;98038.75;;;-0.93;57.31
73024;BME280;61199;47.526;8.538;2023-02-08T06:50:37;98038.25;;;-0.66;63.64
73024;BME280;61199;47.526;8.538;2023-02-08T06:53:04;98041.00;;;-0.29;59.79
73024;BME280;61199;47.526;8.538;2023-02-08T06:55:30;98043.91;;;-0.03;58.80
73024;BME280;61199;47.526;8.538;2023-02-08T06:57:57;98037.44;;;0.17;55.76
73024;BME280;61199;47.526;8.538;2023-02-08T07:00:23;98035.75;;;0.16;55.04
73024;BME280;61199;47.526;8.538;2023-02-08T07:02:49;98043.03;;;-0.04;54.59
73024;BME280;61199;47.526;8.538;2023-02-08T07:05:17;98046.00;;;-0.22;54.47
73024;BME280;61199;47.526;8.538;2023-02-08T07:07:43;98050.16;;;-0.15;54.39
73024;BME280;61199;47.526;8.538;2023-02-08T07:10:10;98045.91;;;-0.17;54.55
73024;BME280;61199;47.526;8.538;2023-02-08T07:12:37;98055.31;;;-0.16;54.72
73024;BME280;61199;47.526;8.538;2023-02-08T07:15:04;98053.81;;;-0.26;54.61
73024;BME280;61199;47.526;8.538;2023-02-08T07:17:30;98053.25;;;-0.42;54.94
73024;BME280;61199;47.526;8.538;2023-02-08T07:19:56;98058.72;;;-0.58;55.48
73024;BME280;61199;47.526;8.538;2023-02-08T07:22:23;98061.22;;;-0.54;55.60
73024;BME280;61199;47.526;8.538;2023-02-08T07:24:49;98059.41;;;-0.50;55.24
73024;BME280;61199;47.526;8.538;2023-02-08T07:27:16;98054.97;;;-0.42;55.26
73024;BME280;61199;47.526;8.538;2023-02-08T07:29:42;98053.72;;;-0.23;55.05
73024;BME280;61199;47.526;8.538;2023-02-08T07:32:09;98060.63;;;-0.24;55.07
73024;BME280;61199;47.526;8.538;2023-02-08T07:34:37;98057.06;;;-0.18;54.92
73024;BME280;61199;47.526;8.538;2023-02-08T07:37:03;98052.31;;;-0.38;54.86
73024;BME280;61199;47.526;8.538;2023-02-08T07:39:30;98053.97;;;-0.34;54.90
73024;BME280;61199;47.526;8.538;2023-02-08T07:41:57;98058.94;;;-0.25;54.74
73024;BME280;61199;47.526;8.538;2023-02-08T07:44:24;98063.34;;;-0.31;54.45
73024;BME280;61199;47.526;8.538;2023-02-08T07:46:50;98063.72;;;-0.07;54.44
73024;BME280;61199;47.526;8.538;2023-02-08T07:49:16;98065.44;;;-0.08;53.96
73024;BME280;61199;47.526;8.538;2023-02-08T07:51:43;98061.44;;;-0.23;54.21
73024;BME280;61199;47.526;8.538;2023-02-08T07:54:09;98066.25;;;-0.06;53.98
73024;BME280;61199;47.526;8.538;2023-02-08T07:56:35;98061.94;;;-0.05;53.76
73024;BME280;61199;47.526;8.538;2023-02-08T07:59:02;98064.22;;;0.10;54.44
73024;BME280;61199;47.526;8.538;2023-02-08T08:01:28;98068.53;;;0.08;54.28
73024;BME280;61199;47.526;8.538;2023-02-08T08:03:55;98070.88;;;0.20;53.90
73024;BME280;61199;47.526;8.538;2023-02-08T08:06:22;98070.22;;;0.09;53.90
73024;BME280;61199;47.526;8.538;2023-02-08T08:08:49;98071.16;;;0.06;54.05
73024;BME280;61199;47.526;8.538;2023-02-08T08:11:17;98062.31;;;0.18;53.89
73024;BME280;61199;47.526;8.538;2023-02-08T08:13:43;98067.34;;;0.24;53.94
73024;BME280;61199;47.526;8.538;2023-02-08T08:16:10;98067.31;;;0.25;53.87
73024;BME280;61199;47.526;8.538;2023-02-08T08:18:37;98071.16;;;0.06;53.80
73024;BME280;61199;47.526;8.538;2023-02-08T08:21:03;98076.03;;;0.20;53.68
73024;BME280;61199;47.526;8.538;2023-02-08T08:23:30;98072.81;;;0.09;53.57
73024;BME280;61199;47.526;8.538;2023-02-08T08:25:59;98071.66;;;0.23;53.25
73024;BME280;61199;47.526;8.538;2023-02-08T08:28:25;98076.53;;;0.37;53.08
73024;BME280;61199;47.526;8.538;2023-02-08T08:30:52;98088.84;;;0.21;59.07
73024;BME280;61199;47.526;8.538;2023-02-08T08:33:19;98089.09;;;0.11;55.11
73024;BME280;61199;47.526;8.538;2023-02-08T08:35:46;98090.00;;;0.08;54.31
73024;BME280;61199;47.526;8.538;2023-02-08T08:38:12;98089.13;;;0.09;54.35
73024;BME280;61199;47.526;8.538;2023-02-08T08:40:39;98081.88;;;0.28;54.05
73024;BME280;61199;47.526;8.538;2023-02-08T08:43:06;98090.22;;;0.39;53.36
73024;BME280;61199;47.526;8.538;2023-02-08T08:45:33;98089.13;;;0.50;53.34
73024;BME280;61199;47.526;8.538;2023-02-08T08:48:04;98082.91;;;0.59;52.99
73024;BME280;61199;47.526;8.538;2023-02-08T08:50:30;98082.88;;;0.60;53.00
73024;BME280;61199;47.526;8.538;2023-02-08T08:52:56;98080.03;;;0.71;53.27
73024;BME280;61199;47.526;8.538;2023-02-08T08:55:24;98079.03;;;0.78;53.60
73024;BME280;61199;47.526;8.538;2023-02-08T08:57:51;98077.09;;;0.49;53.76
73024;BME280;61199;47.526;8.538;2023-02-08T09:00:18;98080.72;;;0.41;54.05
73024;BME280;61199;47.526;8.538;2023-02-08T09:02:45;98081.22;;;0.58;54.00
73024;BME280;61199;47.526;8.538;2023-02-08T09:05:11;98076.97;;;0.54;54.32
73024;BME280;61199;47.526;8.538;2023-02-08T09:07:37;98081.22;;;0.58;54.32
73024;BME280;61199;47.526;8.538;2023-02-08T09:10:04;98078.63;;;0.58;54.21
73024;BME280;61199;47.526;8.538;2023-02-08T09:12:31;98077.53;;;0.68;54.06
73024;BME280;61199;47.526;8.538;2023-02-08T09:14:57;98077.25;;;0.80;53.89
73024;BME280;61199;47.526;8.538;2023-02-08T09:17:24;98071.69;;;0.60;54.13
73024;BME280;61199;47.526;8.538;2023-02-08T09:19:50;98074.16;;;0.66;54.33
73024;BME280;61199;47.526;8.538;2023-02-08T09:22:17;98079.44;;;0.60;54.82
73024;BME280;61199;47.526;8.538;2023-02-08T09:24:45;98076.53;;;0.75;54.07
73024;BME280;61199;47.526;8.538;2023-02-08T09:27:11;98068.41;;;0.90;54.33
73024;BME280;61199;47.526;8.538;2023-02-08T09:29:37;98067.59;;;0.88;53.76
73024;BME280;61199;47.526;8.538;2023-02-08T09:32:04;98076.47;;;0.76;54.57
73024;BME280;61199;47.526;8.538;2023-02-08T09:34:30;98073.38;;;0.62;55.16
73024;BME280;61199;47.526;8.538;2023-02-08T09:36:57;98077.66;;;0.62;55.48
73024;BME280;61199;47.526;8.538;2023-02-08T09:39:24;98077.75;;;0.59;55.61
73024;BME280;61199;47.526;8.538;2023-02-08T09:44:47;98074.06;;;0.69;56.27
73024;BME280;61199;47.526;8.538;2023-02-08T09:47:34;98081.53;;;0.81;55.74
73024;BME280;61199;47.526;8.538;2023-02-08T09:50:44;98079.94;;;1.12;54.75
73024;BME280;61199;47.526;8.538;2023-02-08T09:53:16;98087.22;;;0.95;55.06
73024;BME280;61199;47.526;8.538;2023-02-08T09:55:49;98078.50;;;0.99;55.28
73024;BME280;61199;47.526;8.538;2023-02-08T10:00:45;98076.66;;;1.05;55.03
73024;BME280;61199;47.526;8.538;2023-02-08T10:03:37;98073.09;;;1.43;53.88
73024;BME280;61199;47.526;8.538;2023-02-08T10:06:10;98077.59;;;1.68;53.72
73024;BME280;61199;47.526;8.538;2023-02-08T10:08:39;98067.25;;;1.68;53.50
73024;BME280;61199;47.526;8.538;2023-02-08T10:11:27;98068.63;;;1.81;52.89
73024;BME280;61199;47.526;8.538;2023-02-08T10:14:12;98074.63;;;1.51;53.84
73024;BME280;61199;47.526;8.538;2023-02-08T10:16:57;98073.13;;;1.75;53.47
73024;BME280;61199;47.526;8.538;2023-02-08T10:33:02;98072.47;;;2.57;52.87
73024;BME280;61199;47.526;8.538;2023-02-08T10:35:36;98077.09;;;2.75;52.41
73024;BME280;61199;47.526;8.538;2023-02-08T10:40:48;98064.19;;;2.73;51.82
73024;BME280;61199;47.526;8.538;2023-02-08T10:43:36;98058.63;;;2.85;51.68
73024;BME280;61199;47.526;8.538;2023-02-08T10:46:33;98055.81;;;2.92;50.87
73024;BME280;61199;47.526;8.538;2023-02-08T10:49:11;98059.09;;;2.97;50.87
73024;BME280;61199;47.526;8.538;2023-02-08T10:51:41;98056.81;;;3.14;50.79
73024;BME280;61199;47.526;8.538;2023-02-08T10:54:12;98060.69;;;3.27;50.54
73024;BME280;61199;47.526;8.538;2023-02-08T10:56:44;98064.66;;;3.37;50.63
73024;BME280;61199;47.526;8.538;2023-02-08T10:59:18;98059.91;;;3.25;50.73
73024;BME280;61199;47.526;8.538;2023-02-08T11:01:46;98048.91;;;3.19;50.13
73024;BME280;61199;47.526;8.538;2023-02-08T11:04:14;98053.50;;;3.35;50.66
73024;BME280;61199;47.526;8.538;2023-02-08T11:06:42;98050.72;;;3.41;50.42
73024;BME280;61199;47.526;8.538;2023-02-08T11:09:28;98049.34;;;3.31;49.99
73024;BME280;61199;47.526;8.538;2023-02-08T11:11:57;98039.94;;;3.53;50.54
73024;BME280;61199;47.526;8.538;2023-02-08T11:14:27;98039.22;;;3.74;49.63
73024;BME280;61199;47.526;8.538;2023-02-08T11:17:24;98038.31;;;3.75;49.01
73024;BME280;61199;47.526;8.538;2023-02-08T11:19:51;98032.25;;;3.76;48.67
73024;BME280;61199;47.526;8.538;2023-02-08T11:22:19;98027.25;;;3.70;48.71
73024;BME280;61199;47.526;8.538;2023-02-08T11:24:54;98032.81;;;3.84;48.47
73024;BME280;61199;47.526;8.538;2023-02-08T11:27:29;98027.84;;;4.01;48.36
73024;BME280;61199;47.526;8.538;2023-02-08T11:32:39;98020.03;;;4.26;47.89
73024;BME280;61199;47.526;8.538;2023-02-08T11:37:48;98019.50;;;4.39;46.62
73024;BME280;61199;47.526;8.538;2023-02-08T11:40:22;98008.88;;;4.45;46.32
73024;BME280;61199;47.526;8.538;2023-02-08T11:42:50;98005.16;;;4.52;46.47
73024;BME280;61199;47.526;8.538;2023-02-08T11:45:26;98001.88;;;4.26;46.85
73024;BME280;61199;47.526;8.538;2023-02-08T11:47:54;98000.66;;;4.57;46.33
73024;BME280;61199;47.526;8.538;2023-02-08T11:50:28;98001.91;;;4.69;46.60
73024;BME280;61199;47.526;8.538;2023-02-08T11:52:58;98004.84;;;4.81;46.26
73024;BME280;61199;47.526;8.538;2023-02-08T11:55:28;98002.25;;;4.81;46.56
73024;BME280;61199;47.526;8.538;2023-02-08T12:00:39;97994.31;;;5.06;45.42
73024;BME280;61199;47.526;8.538;2023-02-08T12:03:24;97989.00;;;5.30;45.51
73024;BME280;61199;47.526;8.538;2023-02-08T12:06:10;97995.19;;;5.26;44.61
73024;BME280;61199;47.526;8.538;2023-02-08T12:08:59;97999.88;;;5.38;44.69
73024;BME280;61199;47.526;8.538;2023-02-08T12:17:00;97980.53;;;5.85;44.11
73024;BME280;61199;47.526;8.538;2023-02-08T12:22:09;97981.53;;;6.01;44.68
73024;BME280;61199;47.526;8.538;2023-02-08T12:24:57;97977.75;;;6.26;43.20
73024;BME280;61199;47.526;8.538;2023-02-08T12:27:41;97969.44;;;6.37;43.23
73024;BME280;61199;47.526;8.538;2023-02-08T12:30:33;97967.09;;;6.68;43.05
73024;BME280;61199;47.526;8.538;2023-02-08T12:39:05;97949.44;;;6.56;41.75
73024;BME280;61199;47.526;8.538;2023-02-08T12:42:29;97935.75;;;6.69;42.27
73024;BME280;61199;47.526;8.538;2023-02-08T12:50:43;97934.06;;;7.04;40.86
73024;BME280;61199;47.526;8.538;2023-02-08T12:56:09;97916.22;;;7.63;42.45
73024;BME280;61199;47.526;8.538;2023-02-08T12:58:51;97922.53;;;8.07;41.83
73024;BME280;61199;47.526;8.538;2023-02-08T13:01:33;97917.13;;;8.10;41.30
73024;BME280;61199;47.526;8.538;2023-02-08T13:04:06;97917.53;;;8.19;39.01
73024;BME280;61199;47.526;8.538;2023-02-08T13:06:42;97911.47;;;8.50;38.51
73024;BME280;61199;47.526;8.538;2023-02-08T13:09:24;97900.31;;;8.62;38.30
73024;BME280;61199;47.526;8.538;2023-02-08T13:11:56;97896.94;;;8.75;38.35
73024;BME280;61199;47.526;8.538;2023-02-08T13:14:33;97900.84;;;8.97;37.98
73024;BME280;61199;47.526;8.538;2023-02-08T13:17:28;97897.41;;;9.40;36.61
73024;BME280;61199;47.526;8.538;2023-02-08T13:20:04;97899.47;;;9.77;36.88
73024;BME280;61199;47.526;8.538;2023-02-08T13:22:36;97905.28;;;10.10;35.61
73024;BME280;61199;47.526;8.538;2023-02-08T13:25:13;97895.91;;;10.20;35.14
73024;BME280;61199;47.526;8.538;2023-02-08T13:27:40;97895.59;;;10.39;35.15
73024;BME280;61199;47.526;8.538;2023-02-08T13:30:18;97893.09;;;10.64;34.37
73024;BME280;61199;47.526;8.538;2023-02-08T13:32:45;97889.63;;;10.63;33.69
73024;BME280;61199;47.526;8.538;2023-02-08T13:35:24;97888.34;;;10.56;34.13
73024;BME280;61199;47.526;8.538;2023-02-08T13:38:00;97881.28;;;10.30;35.84
73024;BME280;61199;47.526;8.538;2023-02-08T13:40:30;97881.88;;;9.93;36.27
73024;BME280;61199;47.526;8.538;2023-02-08T13:46:10;97880.34;;;9.19;37.17
73024;BME280;61199;47.526;8.538;2023-02-08T13:48:49;97873.44;;;9.04;37.64
73024;BME280;61199;47.526;8.538;2023-02-08T14:04:38;97883.84;;;10.85;33.43
73024;BME280;61199;47.526;8.538;2023-02-08T14:07:15;97886.69;;;10.94;33.22
73024;BME280;61199;47.526;8.538;2023-02-08T14:09:56;97881.72;;;11.16;32.84
73024;BME280;61199;47.526;8.538;2023-02-08T14:12:34;97877.19;;;11.18;32.84
73024;BME280;61199;47.526;8.538;2023-02-08T14:17:45;97889.50;;;11.43;32.15
73024;BME280;61199;47.526;8.538;2023-02-08T14:20:36;97889.81;;;11.38;32.45
73024;BME280;61199;47.526;8.538;2023-02-08T14:23:23;97892.72;;;11.21;32.60
73024;BME280;61199;47.526;8.538;2023-02-08T14:25:53;97891.66;;;11.11;33.02
73024;BME280;61199;47.526;8.538;2023-02-08T14:28:37;97888.09;;;11.12;32.75
73024;BME280;61199;47.526;8.538;2023-02-08T14:31:07;97903.09;;;11.10;32.81
73024;BME280;61199;47.526;8.538;2023-02-08T14:33:38;97906.53;;;10.72;33.53
73024;BME280;61199;47.526;8.538;2023-02-08T14:36:31;97902.59;;;10.52;33.59
73024;BME280;61199;47.526;8.538;2023-02-08T14:42:05;97890.72;;;10.47;33.75
73024;BME280;61199;47.526;8.538;2023-02-08T14:50:15;97877.72;;;10.45;34.19
73024;BME280;61199;47.526;8.538;2023-02-08T14:55:58;97884.78;;;10.17;35.42
73024;BME280;61199;47.526;8.538;2023-02-08T14:58:29;97892.81;;;9.00;38.80
73024;BME280;61199;47.526;8.538;2023-02-08T15:01:00;97890.25;;;9.14;37.38
73024;BME280;61199;47.526;8.538;2023-02-08T15:03:30;97899.81;;;8.70;38.43
73024;BME280;61199;47.526;8.538;2023-02-08T15:06:19;97897.78;;;8.60;38.23
73024;BME280;61199;47.526;8.538;2023-02-08T15:08:53;97887.59;;;8.56;38.10
73024;BME280;61199;47.526;8.538;2023-02-08T15:11:25;97886.81;;;8.69;37.53
73024;BME280;61199;47.526;8.538;2023-02-08T15:13:55;97894.63;;;8.84;36.99
73024;BME280;61199;47.526;8.538;2023-02-08T15:16:27;97896.88;;;8.90;37.50
73024;BME280;61199;47.526;8.538;2023-02-08T15:18:55;97889.66;;;8.80;36.65
73024;BME280;61199;47.526;8.538;2023-02-08T15:21:28;97899.03;;;8.98;36.91
73024;BME280;61199;47.526;8.538;2023-02-08T15:24:02;97897.81;;;8.89;36.57
73024;BME280;61199;47.526;8.538;2023-02-08T15:26:31;97896.03;;;8.61;37.41
73024;BME280;61199;47.526;8.538;2023-02-08T15:28:57;97899.31;;;8.49;37.32
73024;BME280;61199;47.526;8.538;2023-02-08T15:31:30;97898.66;;;8.45;37.59